Almo, KY (42020)

7:41 AM CST on February 12, 2016 (GMT -0600)
Kyle-Oakley | | Change Station
CLOSE
Current Station
Airport
Location: Murray,
Elevation: 577 ft
Nearby Weather Stations

Elev 577 ft 36.66 °N, 88.37 °W | Updated 6 minutes ago

Overcast
Overcast
32 °F
Feels Like 28 °F
N
5
Wind Variable Wind from NNE

Today
High -- | Low -- °F
--% Chance of Precip.
Yesterday
High -- | Low -- °F
Precip. -- in
Pressure 30.20 in
Visibility 10.0 miles
Clouds Overcast 7000 ft
Windchill 28 °F
Dew Point 19 °F
Humidity 60%
Rainfall 0.00 in
Snow Depth Not available.
6:45 AM 5:30 PM
Waxing Crescent, 20% visible
METAR KCEY 121335Z AUTO 03004KT 10SM OVC070 00/M07 A3020 RMK AO1
Pressure 30.20 in
Visibility 10.0 miles
Clouds Overcast 7000 ft
Windchill 28 °F
Dew Point 19 °F
Humidity 60%
Rainfall 0.00 in
Snow Depth Not available.
6:45 AM 5:30 PM
Waxing Crescent, 20% visible
METAR KCEY 121335Z AUTO 03004KT 10SM OVC070 00/M07 A3020 RMK AO1

10-Day Weather Forecast

Almanac

Astronomy

Feb. 12, 2016 Rise Set
Actual Time
Civil Twilight
Nautical Twilight
Astronomical Twilight
Moon
Length of Visible Light
Length of Day
Tomorrow will be .
, % of the Moon is Illuminated

Today's Extremes

State Highs State Lows

Community

WunderPhotos

Upload Photos

1,892,313 photos uploaded!

WunderBlog® & News

Nearby

Air Quality

  Air Quality AQ Index Pollutant
Not available.

Snow Depth

Station Depth Elevation

Earthquake Activity

City Distance Mag. Time & Date
Minimum magnitude displayed is 2.5.

Coastal Water Temperatures

Place Temperature

Stations

Nearby Weather Stations

Station Location Temp. Windchill Dew Point Humidity Wind Precip. Elev Updated Type
                   

Watches & Warnings

There are currently no watches in effect.